createdAt,value
2023-01-03T00:02:14.639Z,43.13
2023-01-03T00:04:49.463Z,44.80
2023-01-03T00:07:34.351Z,46.85
2023-01-03T00:10:05.737Z,51.97
2023-01-03T00:12:35.919Z,51.50
2023-01-03T00:15:09.392Z,52.40
2023-01-03T00:17:39.441Z,52.38
2023-01-03T00:20:11.645Z,54.17
2023-01-03T00:22:41.651Z,54.08
2023-01-03T00:25:12.806Z,54.83
2023-01-03T00:27:43.069Z,52.88
2023-01-03T00:30:16.826Z,54.78
2023-01-03T00:32:46.868Z,56.55
2023-01-03T00:35:16.985Z,60.28
2023-01-03T00:37:47.025Z,56.92
2023-01-03T00:40:17.088Z,60.28
2023-01-03T00:42:59.496Z,57.70
2023-01-03T00:45:35.752Z,53.05
2023-01-03T00:48:05.948Z,53.55
2023-01-03T00:50:35.975Z,51.22
2023-01-03T00:53:06.122Z,51.58
2023-01-03T00:55:37.587Z,48.45
2023-01-03T00:58:07.691Z,45.78
2023-01-03T01:00:43.811Z,44.25
2023-01-03T01:03:18.237Z,43.10
2023-01-03T01:08:18.131Z,43.45
2023-01-03T01:11:02.096Z,42.22
2023-01-03T01:13:32.667Z,47.72
2023-01-03T01:16:10.172Z,49.22
2023-01-03T01:18:41.635Z,49.38
2023-01-03T01:21:13.569Z,59.47
2023-01-03T01:23:44.446Z,60.40
2023-01-03T01:26:21.935Z,60.65
2023-01-03T01:28:53.693Z,60.00
2023-01-03T01:31:28.309Z,59.95
2023-01-03T01:34:02.078Z,62.40
2023-01-03T01:36:37.940Z,63.00
2023-01-03T01:39:10.887Z,67.93
2023-01-03T01:41:53.903Z,74.60
2023-01-03T01:44:43.627Z,71.55
2023-01-03T01:47:24.081Z,72.10
2023-01-03T01:49:59.583Z,80.05
2023-01-03T01:52:31.523Z,71.90
2023-01-03T01:55:04.692Z,72.43
2023-01-03T01:57:36.198Z,75.32
2023-01-03T02:00:12.175Z,73.65
2023-01-03T02:02:53.273Z,70.93
2023-01-03T02:05:24.936Z,76.93
2023-01-03T02:07:57.473Z,76.43
2023-01-03T02:10:41.030Z,70.60
2023-01-03T02:13:14.049Z,73.78
2023-01-03T02:16:00.755Z,77.07
2023-01-03T02:18:42.262Z,76.38
2023-01-03T02:21:44.886Z,83.30
2023-01-03T02:24:38.419Z,76.40
2023-01-03T02:27:24.304Z,73.70
2023-01-03T02:30:31.053Z,72.45
2023-01-03T02:33:08.230Z,75.28
2023-01-03T02:35:43.019Z,77.78
2023-01-03T02:38:24.176Z,77.70
2023-01-03T02:41:01.837Z,75.68
2023-01-03T02:43:40.801Z,74.78
2023-01-03T02:46:26.940Z,82.38
2023-01-03T02:49:02.178Z,80.85
2023-01-03T02:51:36.991Z,85.97
2023-01-03T02:54:11.691Z,81.32
2023-01-03T02:56:47.102Z,78.43
2023-01-03T02:59:20.665Z,77.97
2023-01-03T03:01:56.060Z,81.60
2023-01-03T03:04:31.100Z,83.55
2023-01-03T03:07:08.108Z,77.55
2023-01-03T03:09:58.888Z,78.03
2023-01-03T03:12:45.600Z,70.25
2023-01-03T03:15:20.021Z,73.55
2023-01-03T03:17:57.231Z,73.28
2023-01-03T03:20:39.768Z,77.60
2023-01-03T03:23:25.862Z,76.38
2023-01-03T03:26:00.390Z,71.55
2023-01-03T03:28:35.974Z,74.82
2023-01-03T03:31:09.667Z,71.43
2023-01-03T03:33:47.409Z,67.30
2023-01-03T03:36:22.843Z,65.75
2023-01-03T03:38:54.102Z,65.55
2023-01-03T03:41:43.898Z,71.53
2023-01-03T03:44:35.631Z,63.17
2023-01-03T03:47:12.841Z,57.97
2023-01-03T03:49:49.071Z,63.03
2023-01-03T03:52:22.689Z,56.60
2023-01-03T03:55:00.039Z,57.83
2023-01-03T03:57:35.019Z,67.07
2023-01-03T04:00:14.315Z,63.47
2023-01-03T04:02:47.192Z,57.70
2023-01-03T04:05:26.205Z,55.75
2023-01-03T04:07:56.866Z,59.00
2023-01-03T04:10:34.044Z,58.35
2023-01-03T04:13:07.746Z,57.88
2023-01-03T04:15:42.041Z,56.95
2023-01-03T04:18:12.206Z,56.15
2023-01-03T04:20:45.136Z,59.35
2023-01-03T04:23:15.493Z,56.43
2023-01-03T04:25:45.695Z,57.25
2023-01-03T04:28:16.009Z,49.42
2023-01-03T04:30:46.808Z,46.47
2023-01-03T04:33:17.507Z,54.35
2023-01-03T04:35:50.380Z,60.22
2023-01-03T04:38:20.750Z,55.83
2023-01-03T04:40:50.843Z,59.05
2023-01-03T04:43:33.402Z,52.83
2023-01-03T04:46:03.634Z,58.55
2023-01-03T04:48:34.013Z,54.88
2023-01-03T04:51:07.046Z,53.42
2023-01-03T04:53:37.447Z,55.73
2023-01-03T04:56:08.043Z,57.70
2023-01-03T04:58:38.323Z,59.10
2023-01-03T05:01:10.534Z,47.88
2023-01-03T05:03:41.167Z,55.38
2023-01-03T05:06:15.126Z,50.33
2023-01-03T05:11:17.747Z,45.28
2023-01-03T05:13:47.810Z,48.35
2023-01-03T05:16:19.173Z,50.05
2023-01-03T05:18:49.761Z,51.70
2023-01-03T05:21:37.639Z,50.58
2023-01-03T05:24:21.554Z,52.28
2023-01-03T05:26:52.017Z,49.15
2023-01-03T05:29:24.128Z,53.55
2023-01-03T05:31:54.839Z,51.10
2023-01-03T05:34:25.633Z,53.33
2023-01-03T05:36:58.591Z,47.92
2023-01-03T05:39:28.599Z,48.30
2023-01-03T05:42:03.696Z,49.55
2023-01-03T05:44:36.949Z,51.27
2023-01-03T05:47:08.637Z,48.75
2023-01-03T05:49:38.732Z,48.92
2023-01-03T05:52:11.832Z,51.67
2023-01-03T05:54:41.952Z,49.35
2023-01-03T05:57:12.266Z,48.22
2023-01-03T05:59:42.343Z,48.45
2023-01-03T06:02:12.576Z,48.22
2023-01-03T06:04:42.770Z,46.70
2023-01-03T06:07:15.622Z,49.08
2023-01-03T06:09:45.700Z,48.90
2023-01-03T06:12:15.921Z,45.42
2023-01-03T06:14:46.311Z,42.63
2023-01-03T06:17:28.735Z,43.03
2023-01-03T06:19:58.949Z,45.95
2023-01-03T06:22:32.313Z,43.13
2023-01-03T06:25:02.668Z,48.63
2023-01-03T06:27:33.392Z,46.97
2023-01-03T06:30:03.527Z,42.22
2023-01-03T06:32:33.854Z,45.67
2023-01-03T06:35:03.926Z,46.85
2023-01-03T06:37:36.721Z,44.75
2023-01-03T06:40:08.756Z,47.65
2023-01-03T06:42:48.279Z,44.65
2023-01-03T06:45:31.223Z,47.50
2023-01-03T06:48:18.676Z,50.65
2023-01-03T06:51:01.500Z,49.40
2023-01-03T06:53:38.003Z,50.17
2023-01-03T06:56:09.254Z,46.65
2023-01-03T06:58:39.770Z,49.78
2023-01-03T07:01:10.594Z,51.95
2023-01-03T07:03:40.988Z,55.13
2023-01-03T07:06:11.042Z,48.35
2023-01-03T07:08:48.053Z,50.70
2023-01-03T07:11:18.828Z,51.67
2023-01-03T07:14:02.588Z,55.40
2023-01-03T07:16:34.575Z,52.95
2023-01-03T07:19:05.529Z,57.63
2023-01-03T07:21:37.028Z,59.67
2023-01-03T07:24:15.661Z,60.20
2023-01-03T07:26:45.786Z,62.58
2023-01-03T07:29:16.722Z,63.65
2023-01-03T07:31:47.029Z,67.03
2023-01-03T07:34:17.137Z,72.15
2023-01-03T07:36:47.372Z,78.22
2023-01-03T07:39:20.256Z,71.80
2023-01-03T07:42:11.188Z,70.85
2023-01-03T07:44:41.326Z,68.57
2023-01-03T07:47:11.475Z,63.38
2023-01-03T07:49:43.412Z,65.13
2023-01-03T07:52:14.595Z,63.60
2023-01-03T07:54:47.186Z,65.97
2023-01-03T07:57:18.514Z,62.83
2023-01-03T07:59:48.861Z,68.57
2023-01-03T08:02:20.504Z,67.68
2023-01-03T08:04:50.889Z,67.60
2023-01-03T08:07:20.938Z,74.53
2023-01-03T08:10:21.152Z,74.88
2023-01-03T08:13:03.498Z,74.72
2023-01-03T08:15:33.898Z,75.70
2023-01-03T08:18:04.133Z,74.95
2023-01-03T08:20:34.323Z,73.75
2023-01-03T08:23:04.631Z,74.82
2023-01-03T08:25:37.318Z,78.80
2023-01-03T08:28:09.242Z,81.47
2023-01-03T08:30:43.559Z,78.80
2023-01-03T08:33:17.030Z,80.45
2023-01-03T08:35:52.275Z,94.63
2023-01-03T08:38:28.145Z,76.93
2023-01-03T08:41:03.140Z,80.80
2023-01-03T08:43:37.402Z,78.30
2023-01-03T08:46:11.569Z,80.90
2023-01-03T08:48:41.939Z,86.68
2023-01-03T08:51:12.254Z,80.63
2023-01-03T08:53:42.705Z,73.65
2023-01-03T08:56:15.481Z,76.60
2023-01-03T08:58:45.515Z,77.22
2023-01-03T09:01:16.275Z,75.78
2023-01-03T09:03:46.597Z,78.80
2023-01-03T09:06:17.279Z,79.88
2023-01-03T09:08:47.508Z,93.93
2023-01-03T09:11:20.178Z,79.30
2023-01-03T09:13:50.394Z,76.65
2023-01-03T09:16:20.818Z,86.13
2023-01-03T09:18:51.602Z,89.85
2023-01-03T09:21:21.904Z,87.20
2023-01-03T09:23:51.999Z,89.13
2023-01-03T09:26:24.900Z,90.85
2023-01-03T09:28:55.490Z,84.80
2023-01-03T09:31:25.937Z,78.32
2023-01-03T09:33:56.122Z,76.78
2023-01-03T09:36:26.425Z,76.10
2023-01-03T09:38:56.743Z,60.47
2023-01-03T09:41:30.808Z,53.47
2023-01-03T09:44:04.179Z,54.72
2023-01-03T09:46:36.227Z,52.47
2023-01-03T09:49:09.189Z,44.50
2023-01-03T09:51:55.615Z,40.83
2023-01-03T09:54:50.829Z,36.35
2023-01-03T09:57:41.673Z,35.05
2023-01-03T10:00:29.988Z,34.45
2023-01-03T10:03:28.984Z,31.98
2023-01-03T10:06:11.292Z,31.83
2023-01-03T10:08:50.134Z,31.65
2023-01-03T10:11:27.717Z,31.58
2023-01-03T10:14:16.349Z,28.00
2023-01-03T10:16:58.775Z,30.48
2023-01-03T10:19:54.278Z,28.65
2023-01-03T10:22:28.529Z,27.35
2023-01-03T10:25:08.651Z,30.80
2023-01-03T10:27:41.607Z,31.27
2023-01-03T10:30:20.562Z,28.77
2023-01-03T10:33:16.840Z,27.92
2023-01-03T10:35:47.110Z,27.33
2023-01-03T10:38:18.710Z,28.05
2023-01-03T10:40:50.751Z,27.48
2023-01-03T10:43:29.565Z,28.00
2023-01-03T10:46:05.037Z,24.75
2023-01-03T10:49:16.934Z,26.60
2023-01-03T10:51:40.054Z,24.42
2023-01-03T10:54:16.214Z,24.23
2023-01-03T10:59:20.980Z,23.13
2023-01-03T11:02:04.759Z,24.90
2023-01-03T11:04:36.033Z,25.00
2023-01-03T11:07:17.047Z,26.45
2023-01-03T11:09:52.412Z,25.00
2023-01-03T11:12:29.694Z,24.98
2023-01-03T11:15:01.923Z,23.10
2023-01-03T11:17:35.802Z,23.40
2023-01-03T11:20:06.010Z,25.73
2023-01-03T11:22:44.115Z,26.58
2023-01-03T11:25:28.474Z,35.15
2023-01-03T11:28:30.795Z,25.95
2023-01-03T11:31:09.076Z,29.55
2023-01-03T11:34:00.226Z,33.42
2023-01-03T11:36:42.368Z,27.00
2023-01-03T11:39:44.854Z,26.80
2023-01-03T11:42:32.594Z,27.25
2023-01-03T11:45:27.803Z,27.35
2023-01-03T11:48:09.013Z,27.33
2023-01-03T11:50:48.905Z,25.27
2023-01-03T11:53:33.348Z,26.92
2023-01-03T11:56:18.704Z,27.75
2023-01-03T11:59:25.685Z,25.02
2023-01-03T12:02:33.444Z,28.33
2023-01-03T12:05:16.789Z,28.23
2023-01-03T12:08:00.452Z,22.13
2023-01-03T12:10:43.095Z,32.17
2023-01-03T12:13:29.889Z,20.88
2023-01-03T12:16:06.225Z,17.45
2023-01-03T12:18:47.707Z,18.45
2023-01-03T12:21:23.798Z,22.08
2023-01-03T12:24:04.337Z,19.30
2023-01-03T12:26:35.611Z,16.40
2023-01-03T12:29:10.786Z,22.35
2023-01-03T12:31:47.139Z,20.50
2023-01-03T12:34:28.039Z,22.88
2023-01-03T12:37:09.563Z,25.27
2023-01-03T12:39:55.572Z,26.40
2023-01-03T12:42:35.026Z,22.90
2023-01-03T12:45:34.205Z,22.25
2023-01-03T12:48:10.529Z,22.65
2023-01-03T12:50:48.158Z,23.48
2023-01-03T12:53:26.387Z,25.42
2023-01-03T12:56:16.421Z,26.95
2023-01-03T12:59:01.561Z,26.27
2023-01-03T13:01:40.087Z,28.95
2023-01-03T13:04:23.000Z,28.35
2023-01-03T13:06:58.667Z,30.17
2023-01-03T13:09:33.102Z,25.85
2023-01-03T13:12:09.688Z,31.90
2023-01-03T13:14:55.747Z,33.90
2023-01-03T13:17:29.023Z,28.25
2023-01-03T13:20:10.893Z,32.72
2023-01-03T13:22:52.177Z,27.20
2023-01-03T13:25:45.138Z,25.83
2023-01-03T13:28:36.620Z,25.05
2023-01-03T13:31:38.051Z,25.15
2023-01-03T13:34:46.009Z,26.50
2023-01-03T13:37:30.297Z,23.83
2023-01-03T13:40:39.723Z,24.73
2023-01-03T13:43:21.329Z,24.92
2023-01-03T13:45:59.238Z,25.98
2023-01-03T13:48:53.574Z,28.80
2023-01-03T13:51:53.269Z,26.05
2023-01-03T13:55:09.943Z,24.92
2023-01-03T13:58:01.840Z,23.77
2023-01-03T14:00:36.910Z,26.42
2023-01-03T14:03:52.060Z,24.48
2023-01-03T14:06:58.747Z,25.27
2023-01-03T14:10:00.864Z,25.33
2023-01-03T14:12:55.176Z,24.55
2023-01-03T14:15:30.335Z,26.25
2023-01-03T14:18:42.963Z,25.88
2023-01-03T14:21:35.488Z,28.35
2023-01-03T14:24:09.680Z,26.98
2023-01-03T14:26:47.563Z,26.75
2023-01-03T14:29:22.589Z,27.75
2023-01-03T14:31:58.814Z,27.17
2023-01-03T14:34:34.864Z,27.25
2023-01-03T14:37:21.382Z,27.63
2023-01-03T14:40:05.298Z,27.92
2023-01-03T14:42:52.239Z,31.13
2023-01-03T14:45:23.643Z,30.38
2023-01-03T14:53:30.156Z,28.00
2023-01-03T14:56:07.204Z,27.10
2023-01-03T14:58:45.296Z,28.17
2023-01-03T15:01:16.258Z,29.00
2023-01-03T15:03:49.191Z,28.05
2023-01-03T15:06:24.279Z,28.35
2023-01-03T15:09:00.125Z,33.72
2023-01-03T15:11:35.060Z,35.38
2023-01-03T15:14:08.041Z,36.90
2023-01-03T15:16:40.909Z,32.23
2023-01-03T15:19:16.984Z,30.10
2023-01-03T15:21:47.441Z,31.77
2023-01-03T15:24:22.286Z,32.08
2023-01-03T15:26:56.739Z,34.17
2023-01-03T15:29:28.715Z,31.75
2023-01-03T15:32:01.143Z,34.33
2023-01-03T15:34:43.573Z,35.85
2023-01-03T15:37:19.859Z,40.80
2023-01-03T15:39:55.082Z,45.25
2023-01-03T15:42:50.481Z,48.85
2023-01-03T15:45:34.786Z,57.75
2023-01-03T15:48:11.543Z,56.28
2023-01-03T15:50:46.858Z,58.55
2023-01-03T15:53:26.611Z,58.70
2023-01-03T15:56:04.369Z,51.20
2023-01-03T15:58:35.538Z,46.72
2023-01-03T16:01:07.161Z,48.58
2023-01-03T16:03:38.235Z,44.78
2023-01-03T16:06:10.868Z,42.35
2023-01-03T16:08:42.858Z,41.38
2023-01-03T16:11:20.123Z,37.30
2023-01-03T16:13:54.639Z,39.92
2023-01-03T16:16:29.248Z,35.28
2023-01-03T16:18:59.697Z,36.03
2023-01-03T16:21:31.090Z,36.58
2023-01-03T16:24:03.122Z,34.10
2023-01-03T16:26:36.110Z,31.08
2023-01-03T16:29:06.581Z,30.70
2023-01-03T16:31:37.997Z,31.75
2023-01-03T16:34:10.853Z,33.83
2023-01-03T16:36:44.692Z,30.48
2023-01-03T16:42:03.337Z,29.33
2023-01-03T16:44:33.600Z,30.48
2023-01-03T16:47:05.843Z,31.92
2023-01-03T16:49:37.334Z,32.28
2023-01-03T16:52:07.863Z,30.25
2023-01-03T16:54:38.267Z,33.40
2023-01-03T16:57:14.935Z,33.08
2023-01-03T16:59:45.021Z,34.53
2023-01-03T17:02:16.335Z,37.53
2023-01-03T17:04:46.571Z,33.45
2023-01-03T17:07:22.193Z,32.13
2023-01-03T17:09:53.984Z,33.50
2023-01-03T17:12:27.444Z,32.50
2023-01-03T17:14:58.145Z,33.17
2023-01-03T17:17:28.238Z,33.35
2023-01-03T17:20:06.496Z,33.90
2023-01-03T17:22:36.952Z,32.20
2023-01-03T17:25:07.731Z,33.97
2023-01-03T17:27:40.584Z,32.97
2023-01-03T17:30:11.712Z,32.15
2023-01-03T17:32:42.168Z,35.95
2023-01-03T17:35:15.410Z,35.67
2023-01-03T17:38:23.383Z,34.25
2023-01-03T17:40:36.058Z,34.25
2023-01-03T17:43:08.768Z,34.20
2023-01-03T17:45:51.671Z,39.88
2023-01-03T17:48:34.257Z,35.72
2023-01-03T17:51:05.073Z,33.95
2023-01-03T17:53:35.226Z,32.50
2023-01-03T17:56:05.920Z,32.72
2023-01-03T17:58:42.065Z,32.20
2023-01-03T18:01:14.709Z,33.53
2023-01-03T18:03:48.642Z,34.00
2023-01-03T18:06:22.620Z,31.60
2023-01-03T18:11:26.535Z,34.33
2023-01-03T18:13:59.565Z,34.75
2023-01-03T18:16:29.691Z,34.75
2023-01-03T18:18:59.795Z,34.25
2023-01-03T18:21:30.559Z,34.72
2023-01-03T18:24:03.065Z,36.00
2023-01-03T18:26:37.855Z,38.85
2023-01-03T18:29:10.850Z,37.00
2023-01-03T18:31:41.165Z,35.47
2023-01-03T18:34:12.346Z,38.78
2023-01-03T18:36:44.689Z,35.72
2023-01-03T18:39:18.000Z,35.97
2023-01-03T18:41:49.650Z,39.45
2023-01-03T18:44:27.608Z,38.28
2023-01-03T18:46:58.443Z,40.97
2023-01-03T18:49:28.741Z,40.58
2023-01-03T18:51:58.865Z,40.75
2023-01-03T18:54:29.907Z,38.97
2023-01-03T18:57:00.305Z,37.65
2023-01-03T18:59:33.260Z,45.22
2023-01-03T19:02:04.029Z,52.97
2023-01-03T19:04:34.484Z,47.85
2023-01-03T19:07:04.849Z,42.90
2023-01-03T19:09:36.193Z,40.47
2023-01-03T19:12:06.430Z,37.88
2023-01-03T19:14:44.896Z,36.97
2023-01-03T19:17:21.052Z,34.90
2023-01-03T19:19:53.675Z,37.08
2023-01-03T19:22:29.182Z,40.10
2023-01-03T19:25:02.613Z,38.30
2023-01-03T19:27:40.351Z,39.13
2023-01-03T19:30:20.419Z,39.47
2023-01-03T19:32:55.254Z,42.80
2023-01-03T19:35:29.245Z,42.25
2023-01-03T19:37:59.386Z,40.45
2023-01-03T19:40:33.996Z,35.75
2023-01-03T19:43:04.353Z,37.63
2023-01-03T19:45:40.015Z,35.90
2023-01-03T19:48:19.068Z,34.97
2023-01-03T19:50:50.201Z,36.65
2023-01-03T19:53:20.309Z,34.85
2023-01-03T19:55:53.883Z,36.30
2023-01-03T19:58:29.465Z,42.65
2023-01-03T20:01:03.514Z,37.65
2023-01-03T20:03:39.584Z,36.80
2023-01-03T20:06:14.005Z,36.60
2023-01-03T20:08:47.107Z,40.97
2023-01-03T20:11:19.874Z,36.63
2023-01-03T20:13:50.043Z,35.33
2023-01-03T20:16:23.941Z,33.35
2023-01-03T20:18:54.273Z,32.75
2023-01-03T20:21:27.327Z,32.25
2023-01-03T20:23:59.179Z,32.45
2023-01-03T20:26:30.986Z,32.50
2023-01-03T20:29:05.681Z,33.30
2023-01-03T20:31:38.688Z,33.28
2023-01-03T20:34:10.167Z,35.05
2023-01-03T20:36:43.246Z,35.03
2023-01-03T20:39:26.587Z,35.50
2023-01-03T20:42:03.328Z,33.85
2023-01-03T20:44:33.895Z,32.28
2023-01-03T20:47:07.483Z,33.65
2023-01-03T20:49:40.210Z,35.33
2023-01-03T20:52:20.050Z,32.58
2023-01-03T20:54:50.100Z,34.47
2023-01-03T20:57:23.519Z,35.78
2023-01-03T20:59:53.560Z,35.05
2023-01-03T21:02:26.405Z,32.60
2023-01-03T21:04:56.860Z,31.20
2023-01-03T21:07:52.081Z,32.17
2023-01-03T21:10:23.097Z,36.67
2023-01-03T21:12:53.326Z,35.33
2023-01-03T21:15:24.572Z,34.67
2023-01-03T21:17:57.485Z,35.50
2023-01-03T21:20:29.639Z,34.60
2023-01-03T21:23:00.090Z,34.88
2023-01-03T21:25:33.163Z,34.17
2023-01-03T21:28:04.624Z,35.72
2023-01-03T21:30:36.002Z,34.28
2023-01-03T21:33:09.214Z,34.35
2023-01-03T21:35:41.246Z,39.38
2023-01-03T21:38:12.823Z,37.13
2023-01-03T21:40:43.338Z,35.97
2023-01-03T21:43:14.243Z,40.13
2023-01-03T21:45:48.360Z,40.50
2023-01-03T21:48:22.192Z,41.63
2023-01-03T21:50:52.881Z,42.30
2023-01-03T21:53:25.209Z,49.78
2023-01-03T21:55:55.716Z,54.47
2023-01-03T21:58:26.104Z,60.50
2023-01-03T22:00:56.621Z,65.88
2023-01-03T22:03:41.745Z,67.68
2023-01-03T22:06:14.278Z,74.25
2023-01-03T22:08:44.545Z,75.75
2023-01-03T22:11:15.684Z,67.90
2023-01-03T22:13:45.745Z,67.70
2023-01-03T22:16:15.951Z,81.65
2023-01-03T22:18:48.908Z,86.88
2023-01-03T22:21:20.253Z,64.45
2023-01-03T22:23:50.328Z,59.97
2023-01-03T22:26:20.382Z,54.78
2023-01-03T22:28:50.666Z,52.05
2023-01-03T22:31:23.058Z,50.92
2023-01-03T22:33:56.331Z,49.20
2023-01-03T22:36:26.653Z,47.80
2023-01-03T22:38:56.917Z,55.22
2023-01-03T22:41:27.161Z,47.25
2023-01-03T22:43:57.349Z,40.78
2023-01-03T22:46:27.511Z,44.22
2023-01-03T22:49:00.298Z,40.00
2023-01-03T22:51:30.381Z,37.80
2023-01-03T22:54:00.851Z,37.33
2023-01-03T22:56:30.937Z,36.53
2023-01-03T22:59:00.998Z,35.97
2023-01-03T23:01:31.683Z,34.10
2023-01-03T23:04:06.659Z,36.95
2023-01-03T23:06:38.323Z,32.30
2023-01-03T23:09:09.024Z,33.40
2023-01-03T23:11:51.414Z,33.88
2023-01-03T23:14:23.927Z,34.38
2023-01-03T23:16:58.451Z,36.35
2023-01-03T23:19:31.172Z,37.53
2023-01-03T23:22:01.254Z,43.08
2023-01-03T23:24:31.386Z,45.55
2023-01-03T23:27:01.621Z,44.70
2023-01-03T23:29:31.693Z,46.30
2023-01-03T23:32:01.782Z,44.80
2023-01-03T23:34:34.864Z,39.72
2023-01-03T23:37:05.182Z,38.05
2023-01-03T23:39:35.541Z,37.17
2023-01-03T23:42:05.622Z,35.53
2023-01-03T23:44:35.696Z,34.50
2023-01-03T23:47:11.350Z,32.08
2023-01-03T23:49:46.155Z,31.25
2023-01-03T23:52:18.151Z,31.15
2023-01-03T23:54:50.115Z,29.35
2023-01-03T23:57:22.317Z,29.77
2023-01-03T23:59:52.415Z,29.63
